New York, New York
Traffic Map
Current Weather Conditions
New York, New York
Clear
Clear
-6°
Feels Like: -14°
Wind Chill: -14° Ceiling: Unl
Heat Index: -6° Visibility: 10mi
Dew Point: -17° Wind: 15mph
Humidity: 42% Direction: 300° (WNW)
Pressure: 29.98in Gusts: 30mph
Raw Report DataKNYC 131251Z AUTO 30013G26KT 10SM CLR M06/M17 A2998 RMK AO2 PK WND 30026/1247 SLP146 T10611172 $
Traffic Incident Summary
Active as of:
Severity:
Category:
InformationThere was an issue retrieving the traffic information for this location. Please try a different location or try again shortly.
Advertisements
Track Severe Weather on mobile